Time;durP1;ratioP1;P1;durP2;ratioP2;P2;SDS_P1;SDS_P2;PMS_P1;PMS_P2;Temp;Humidity;BMP_temperature;BMP_pressure;BME280_temperature;BME280_humidity;BME280_pressure;Samples;Min_cycle;Max_cycle;Signal;HPM_P1;HPM_P2
2021/12/06 00:01:46;;;;;;;12.05;4.43;;;0.60;99.90;;;;;;5034500;28;20025;-89
2021/12/06 00:04:17;;;;;;;11.73;4.43;;;0.60;99.90;;;;;;5033585;28;20506;-89
2021/12/06 00:06:46;;;;;;;11.95;4.68;;;0.60;99.90;;;;;;5033164;28;20022;-89
2021/12/06 00:09:18;;;;;;;7.90;4.28;;;0.60;99.90;;;;;;5034735;28;20080;-89
2021/12/06 00:11:44;;;;;;;5.25;3.55;;;0.60;99.90;;;;;;5033578;28;20033;-89
2021/12/06 00:14:10;;;;;;;6.90;4.03;;;0.70;99.90;;;;;;5033667;28;20022;-89
2021/12/06 00:16:36;;;;;;;6.65;3.72;;;0.70;99.90;;;;;;5033181;28;20493;-89
2021/12/06 00:19:05;;;;;;;7.20;3.88;;;0.70;99.90;;;;;;5049132;28;20044;-89
2021/12/06 00:21:31;;;;;;;9.43;4.18;;;0.60;99.90;;;;;;5036696;28;20024;-89
2021/12/06 00:23:57;;;;;;;9.63;4.60;;;0.60;99.90;;;;;;5054374;28;20025;-89
2021/12/06 00:26:23;;;;;;;7.50;3.92;;;0.60;99.90;;;;;;5020223;28;20025;-89
2021/12/06 00:28:56;;;;;;;8.48;4.40;;;0.60;99.90;;;;;;5033228;28;20025;-89
2021/12/06 00:31:22;;;;;;;8.95;4.20;;;0.60;99.90;;;;;;5033022;28;20505;-89
2021/12/06 00:33:54;;;;;;;9.07;4.22;;;0.60;99.90;;;;;;5034050;28;20096;-90
2021/12/06 00:36:27;;;;;;;9.65;4.43;;;0.60;99.90;;;;;;5032873;28;20045;-89
2021/12/06 00:38:52;;;;;;;9.27;3.72;;;0.60;99.90;;;;;;5032850;28;20029;-89
2021/12/06 00:41:19;;;;;;;7.32;3.67;;;0.70;99.90;;;;;;5033196;28;20025;-89
2021/12/06 00:43:45;;;;;;;11.63;4.07;;;0.70;99.90;;;;;;5032757;28;20061;-89
2021/12/06 00:46:11;;;;;;;8.75;4.63;;;0.70;99.90;;;;;;5032540;28;20052;-89
2021/12/06 00:48:37;;;;;;;9.18;3.97;;;0.70;99.90;;;;;;5032395;28;20444;-89
2021/12/06 00:51:03;;;;;;;7.90;2.60;;;0.70;99.90;;;;;;5032383;28;20057;-89
2021/12/06 00:53:28;;;;;;;5.53;3.10;;;0.80;99.90;;;;;;5033396;28;20075;-89
2021/12/06 00:55:54;;;;;;;6.95;3.20;;;0.70;99.90;;;;;;5032849;28;20057;-89
2021/12/06 00:58:20;;;;;;;5.72;3.38;;;0.80;99.90;;;;;;5032593;28;20033;-90
2021/12/06 01:00:51;;;;;;;8.18;3.58;;;0.90;99.90;;;;;;5032452;28;20022;-89
2021/12/06 01:03:24;;;;;;;9.38;3.67;;;0.90;99.90;;;;;;5032920;28;20386;-89
2021/12/06 01:05:50;;;;;;;6.35;3.60;;;0.90;99.90;;;;;;5032380;28;20505;-89
2021/12/06 01:08:18;;;;;;;7.50;3.22;;;0.90;99.90;;;;;;5032456;28;20033;-89
2021/12/06 01:10:45;;;;;;;4.65;2.85;;;1.00;99.90;;;;;;5031581;28;20036;-89
2021/12/06 01:13:11;;;;;;;6.82;3.60;;;1.00;99.90;;;;;;5032061;28;20397;-89
2021/12/06 01:15:39;;;;;;;9.07;4.07;;;1.00;99.90;;;;;;5032488;28;20017;-90
2021/12/06 01:18:08;;;;;;;7.68;3.80;;;1.10;99.90;;;;;;5031768;28;20025;-89
2021/12/06 01:41:15;;;;;;;7.95;3.85;;;1.00;99.90;;;;;;5097878;27;20049;-83
2021/12/06 01:44:04;;;;;;;12.32;4.22;;;1.00;99.90;;;;;;5065975;28;20134;-84
2021/12/06 01:46:31;;;;;;;9.63;4.07;;;1.00;99.90;;;;;;5105859;28;20031;-83
2021/12/06 01:48:57;;;;;;;10.45;4.40;;;1.00;99.90;;;;;;5082837;28;20038;-83
2021/12/06 01:51:23;;;;;;;8.25;4.05;;;1.00;99.90;;;;;;5083217;28;20549;-82
2021/12/06 01:53:49;;;;;;;9.70;4.13;;;1.00;99.90;;;;;;5084963;28;20126;-82
2021/12/06 01:56:15;;;;;;;9.25;4.20;;;0.90;99.90;;;;;;5111947;28;20122;-82
2021/12/06 01:58:43;;;;;;;7.85;4.18;;;0.90;99.90;;;;;;5078871;28;20521;-82
2021/12/06 02:01:09;;;;;;;9.05;4.38;;;0.90;99.90;;;;;;5099430;28;20024;-82
2021/12/06 02:03:35;;;;;;;6.50;3.45;;;0.70;99.90;;;;;;5099226;28;20585;-83
2021/12/06 02:06:02;;;;;;;6.13;3.15;;;0.70;99.90;;;;;;5085513;28;20059;-84
2021/12/06 02:08:27;;;;;;;7.15;3.80;;;0.60;99.90;;;;;;5120476;28;20027;-81
2021/12/06 02:10:59;;;;;;;8.00;3.72;;;0.60;99.90;;;;;;5096864;28;20028;-84
2021/12/06 02:13:28;;;;;;;8.40;3.90;;;0.50;99.90;;;;;;5100936;28;20094;-83
2021/12/06 02:15:55;;;;;;;8.30;4.45;;;0.50;99.90;;;;;;5106666;28;20050;-82
2021/12/06 02:18:43;;;;;;;7.13;3.83;;;0.50;99.90;;;;;;5082522;28;20027;-83
2021/12/06 02:21:20;;;;;;;8.77;3.90;;;0.40;99.90;;;;;;5085745;28;20036;-83
2021/12/06 02:23:49;;;;;;;7.82;3.85;;;0.40;99.90;;;;;;5099804;28;20031;-82
2021/12/06 02:26:16;;;;;;;8.68;4.35;;;0.40;99.90;;;;;;5112436;28;20043;-83
2021/12/06 02:28:42;;;;;;;9.73;4.10;;;0.40;99.90;;;;;;5080154;28;20034;-83
2021/12/06 02:31:08;;;;;;;7.97;3.90;;;0.40;99.90;;;;;;5078527;28;20039;-82
2021/12/06 02:33:35;;;;;;;12.85;4.05;;;0.40;99.90;;;;;;5091209;28;20096;-83
2021/12/06 02:36:01;;;;;;;12.35;4.45;;;0.40;99.90;;;;;;5107157;27;20023;-83
2021/12/06 02:38:26;;;;;;;13.57;3.60;;;0.40;99.90;;;;;;5113168;28;20024;-83
2021/12/06 02:40:52;;;;;;;12.00;4.38;;;0.30;99.90;;;;;;5097388;27;20034;-83
2021/12/06 02:43:18;;;;;;;11.52;3.65;;;0.30;99.90;;;;;;5094470;28;20086;-82
2021/12/06 02:45:44;;;;;;;26.95;3.88;;;0.30;99.90;;;;;;5074995;27;20027;-82
2021/12/06 02:48:12;;;;;;;7.70;3.40;;;0.30;99.90;;;;;;5111612;28;20036;-81
2021/12/06 02:50:46;;;;;;;8.02;3.92;;;0.30;99.90;;;;;;5097314;28;20024;-82
2021/12/06 02:53:12;;;;;;;9.90;3.92;;;0.30;99.90;;;;;;5096895;28;20119;-81
2021/12/06 02:55:39;;;;;;;9.13;4.13;;;0.30;99.90;;;;;;5097591;27;20388;-81
2021/12/06 02:58:20;;;;;;;10.27;4.47;;;0.40;99.90;;;;;;5099537;27;20080;-82
2021/12/06 03:00:50;;;;;;;13.30;4.10;;;0.40;99.90;;;;;;5104039;27;20099;-83
2021/12/06 03:03:19;;;;;;;9.88;3.72;;;0.40;99.90;;;;;;5102636;27;20095;-83
2021/12/06 03:05:46;;;;;;;20.00;5.03;;;0.40;99.90;;;;;;5105542;27;20039;-83
2021/12/06 03:08:12;;;;;;;12.00;4.65;;;0.50;99.90;;;;;;5093933;27;20039;-83
2021/12/06 03:10:38;;;;;;;10.48;4.15;;;0.50;99.90;;;;;;5118737;27;20095;-82
2021/12/06 03:13:05;;;;;;;11.75;4.25;;;0.50;99.90;;;;;;5096500;28;20111;-80
2021/12/06 03:15:31;;;;;;;7.57;3.15;;;0.50;99.90;;;;;;5082432;28;20027;-83
2021/12/06 03:17:57;;;;;;;21.48;5.35;;;0.50;99.90;;;;;;5093521;27;20032;-83
2021/12/06 03:20:24;;;;;;;9.20;4.80;;;0.50;99.90;;;;;;5107726;27;20033;-82
2021/12/06 03:22:49;;;;;;;13.50;5.18;;;0.50;99.90;;;;;;5088547;28;20125;-83
2021/12/06 03:25:18;;;;;;;9.50;3.95;;;0.50;99.90;;;;;;5088967;27;20052;-84
2021/12/06 03:27:43;;;;;;;14.85;4.60;;;0.50;99.90;;;;;;5106091;28;20027;-82
2021/12/06 03:30:12;;;;;;;9.93;4.03;;;0.50;99.90;;;;;;5083820;28;20050;-83
2021/12/06 03:32:38;;;;;;;14.73;4.45;;;0.50;99.90;;;;;;5089020;28;20020;-83
2021/12/06 03:35:05;;;;;;;15.15;4.60;;;0.50;99.90;;;;;;5066356;28;20028;-83
2021/12/06 03:37:31;;;;;;;11.27;4.95;;;0.50;99.90;;;;;;5080275;28;20452;-82
2021/12/06 03:39:56;;;;;;;11.85;5.57;;;0.50;99.90;;;;;;5097576;28;20028;-81
2021/12/06 03:42:23;;;;;;;11.95;5.35;;;0.50;99.90;;;;;;5079799;28;20088;-82
2021/12/06 03:44:50;;;;;;;13.07;5.68;;;0.50;99.90;;;;;;5079125;28;20036;-81
2021/12/06 03:47:23;;;;;;;11.20;5.22;;;0.60;99.90;;;;;;5082602;28;20038;-82
2021/12/06 03:49:52;;;;;;;13.75;5.63;;;0.60;99.90;;;;;;5065158;28;20029;-82
2021/12/06 03:52:19;;;;;;;13.05;5.20;;;0.60;99.90;;;;;;5090210;28;20028;-82
2021/12/06 03:54:45;;;;;;;15.10;5.88;;;0.60;99.90;;;;;;5100201;28;20027;-82
2021/12/06 03:57:11;;;;;;;16.15;6.50;;;0.70;99.90;;;;;;5113145;27;20030;-82
2021/12/06 03:59:37;;;;;;;13.00;6.03;;;0.70;99.90;;;;;;5100371;28;20051;-81
2021/12/06 04:02:03;;;;;;;13.48;5.95;;;0.70;99.90;;;;;;5076783;28;20032;-82
2021/12/06 04:04:29;;;;;;;21.92;7.53;;;0.70;99.90;;;;;;5115620;27;20030;-82
2021/12/06 04:06:55;;;;;;;28.45;6.10;;;0.70;99.90;;;;;;5118015;28;20118;-82
2021/12/06 04:09:21;;;;;;;15.82;6.90;;;0.70;99.90;;;;;;5106348;28;20027;-81
2021/12/06 04:11:47;;;;;;;24.40;7.18;;;0.70;99.90;;;;;;5091426;28;20389;-82
2021/12/06 04:14:14;;;;;;;19.90;6.45;;;0.70;99.90;;;;;;5109250;27;20031;-82
2021/12/06 04:16:41;;;;;;;39.33;7.38;;;0.70;99.90;;;;;;5081794;28;20031;-81
2021/12/06 04:19:08;;;;;;;53.03;7.75;;;0.70;99.90;;;;;;5064740;28;20028;-82
2021/12/06 04:21:35;;;;;;;32.50;7.05;;;0.70;99.90;;;;;;5085557;27;20502;-82
2021/12/06 04:24:02;;;;;;;25.20;7.45;;;0.70;99.90;;;;;;5100431;27;20034;-83
2021/12/06 04:26:28;;;;;;;20.33;6.68;;;0.70;99.90;;;;;;5111970;27;20019;-82
2021/12/06 04:29:00;;;;;;;19.08;6.80;;;0.70;99.90;;;;;;5103519;27;20034;-82
2021/12/06 04:31:30;;;;;;;28.30;6.78;;;0.70;99.90;;;;;;5080097;28;20085;-82
2021/12/06 04:33:56;;;;;;;17.92;6.47;;;0.70;99.90;;;;;;5107799;28;20055;-82
2021/12/06 04:36:22;;;;;;;18.38;7.47;;;0.70;99.90;;;;;;5081068;28;20055;-83
2021/12/06 04:38:48;;;;;;;22.08;7.38;;;0.70;99.90;;;;;;5101705;28;20019;-82
2021/12/06 04:41:14;;;;;;;37.13;7.80;;;0.70;99.90;;;;;;5077093;28;20031;-83
2021/12/06 04:43:40;;;;;;;16.48;7.40;;;0.70;99.90;;;;;;5105512;27;20027;-84
2021/12/06 04:46:05;;;;;;;31.83;7.10;;;0.70;99.90;;;;;;5115966;27;20088;-85
2021/12/06 04:48:31;;;;;;;28.73;6.50;;;0.70;99.90;;;;;;5119632;27;20037;-84
2021/12/06 04:50:57;;;;;;;14.10;6.55;;;0.70;99.90;;;;;;5090972;28;20040;-82
2021/12/06 04:53:26;;;;;;;28.50;7.65;;;0.70;99.90;;;;;;5079603;28;20044;-81
2021/12/06 04:55:58;;;;;;;25.33;8.35;;;0.70;99.90;;;;;;5096254;27;20020;-86
2021/12/06 04:58:31;;;;;;;34.80;7.57;;;0.70;99.90;;;;;;5105959;28;20039;-83
2021/12/06 05:01:24;;;;;;;19.45;7.57;;;0.70;99.90;;;;;;5093867;28;20024;-83
2021/12/06 05:03:51;;;;;;;22.05;6.88;;;0.70;99.90;;;;;;5108966;28;20080;-83
2021/12/06 05:06:22;;;;;;;41.42;6.60;;;0.70;99.90;;;;;;5052456;28;20051;-84
2021/12/06 05:08:51;;;;;;;21.75;7.25;;;0.70;99.90;;;;;;5056979;28;20024;-84
2021/12/06 05:11:20;;;;;;;22.25;6.55;;;0.60;99.90;;;;;;5056991;28;20471;-84
2021/12/06 05:13:47;;;;;;;16.90;6.75;;;0.70;99.90;;;;;;5057015;28;20028;-83
2021/12/06 05:16:13;;;;;;;23.25;7.32;;;0.70;99.90;;;;;;5081561;27;20117;-83
2021/12/06 05:18:40;;;;;;;24.77;6.78;;;0.70;99.90;;;;;;5097091;27;20090;-83
2021/12/06 05:21:05;;;;;;;18.83;5.97;;;0.70;99.90;;;;;;5094983;28;20031;-84
2021/12/06 05:23:32;;;;;;;20.77;7.50;;;0.70;99.90;;;;;;5090494;27;20173;-83
2021/12/06 05:25:57;;;;;;;20.10;6.65;;;0.80;99.90;;;;;;5108184;28;20091;-81
2021/12/06 05:28:27;;;;;;;26.08;6.22;;;0.70;99.90;;;;;;5110761;27;20516;-82
2021/12/06 05:30:55;;;;;;;24.30;7.50;;;0.80;99.90;;;;;;5114707;27;20035;-83
2021/12/06 05:33:29;;;;;;;44.42;7.70;;;0.80;99.90;;;;;;5097310;27;20031;-85
2021/12/06 05:35:58;;;;;;;27.75;7.22;;;0.80;99.90;;;;;;5097415;27;20557;-84
2021/12/06 05:38:25;;;;;;;43.95;6.13;;;0.80;99.90;;;;;;5092285;27;20034;-83
2021/12/06 05:40:51;;;;;;;27.33;6.88;;;0.80;99.90;;;;;;5113583;27;20517;-83
2021/12/06 05:43:17;;;;;;;44.13;6.03;;;0.80;99.90;;;;;;5114426;27;20118;-83
2021/12/06 05:45:43;;;;;;;40.08;6.05;;;0.80;99.90;;;;;;5077766;28;20062;-84
2021/12/06 05:48:08;;;;;;;93.72;6.50;;;0.80;99.90;;;;;;5091858;28;20027;-84
2021/12/06 05:50:34;;;;;;;29.63;5.30;;;0.70;99.90;;;;;;5114041;28;20030;-83
2021/12/06 05:53:00;;;;;;;23.42;6.35;;;0.80;99.90;;;;;;5097275;27;20058;-82
2021/12/06 05:55:28;;;;;;;29.33;6.40;;;0.80;99.90;;;;;;5098158;28;20114;-82
2021/12/06 05:57:56;;;;;;;25.35;7.05;;;0.80;99.90;;;;;;5098553;28;20032;-82
2021/12/06 06:00:23;;;;;;;30.00;7.38;;;0.80;99.90;;;;;;5110492;28;20071;-82
2021/12/06 06:02:49;;;;;;;34.90;8.63;;;0.80;99.90;;;;;;5113728;28;20507;-83
2021/12/06 06:05:15;;;;;;;27.92;7.57;;;0.80;99.90;;;;;;5114257;28;20035;-83
2021/12/06 06:07:41;;;;;;;26.85;6.72;;;0.80;99.90;;;;;;5108304;27;20028;-84
2021/12/06 06:10:07;;;;;;;39.88;6.93;;;0.80;99.90;;;;;;5100560;27;20414;-82
2021/12/06 06:12:33;;;;;;;21.67;6.30;;;0.80;99.90;;;;;;5099666;27;20126;-84
2021/12/06 06:14:58;;;;;;;28.77;6.93;;;0.80;99.90;;;;;;5108222;28;20504;-82
2021/12/06 06:17:26;;;;;;;20.77;5.63;;;0.80;99.90;;;;;;5082503;27;20053;-83
2021/12/06 06:19:56;;;;;;;26.00;7.00;;;0.80;99.90;;;;;;5109987;27;20027;-84
2021/12/06 06:22:23;;;;;;;27.35;6.63;;;0.80;99.90;;;;;;5090965;27;20370;-84
2021/12/06 06:24:48;;;;;;;33.50;6.72;;;0.80;99.90;;;;;;5099542;28;20457;-84
2021/12/06 06:27:14;;;;;;;36.08;7.20;;;0.80;99.90;;;;;;5114303;27;20035;-84
2021/12/06 06:29:40;;;;;;;26.52;6.57;;;0.90;99.90;;;;;;5117885;28;20448;-84
2021/12/06 06:32:07;;;;;;;20.48;6.90;;;0.90;99.90;;;;;;5087663;27;20035;-84
2021/12/06 06:34:34;;;;;;;21.38;6.28;;;0.90;99.90;;;;;;5121639;27;20027;-84
2021/12/06 06:37:01;;;;;;;32.42;6.28;;;0.90;99.90;;;;;;5114755;27;20020;-83
2021/12/06 06:39:27;;;;;;;29.45;6.60;;;0.90;99.90;;;;;;5100698;27;20023;-83
2021/12/06 06:41:54;;;;;;;30.27;5.63;;;0.90;99.90;;;;;;5087818;28;20031;-83
2021/12/06 06:44:20;;;;;;;23.65;5.65;;;0.90;99.90;;;;;;5060300;28;20020;-84
2021/12/06 06:46:49;;;;;;;37.85;6.38;;;0.90;99.90;;;;;;5056829;27;20490;-84
2021/12/06 06:49:16;;;;;;;31.80;5.15;;;0.90;99.90;;;;;;5079375;28;20211;-84
2021/12/06 06:51:43;;;;;;;20.85;5.30;;;0.90;99.90;;;;;;5096163;28;20023;-82
2021/12/06 06:54:09;;;;;;;26.73;5.60;;;0.90;99.90;;;;;;5079677;28;20506;-83
2021/12/06 06:56:35;;;;;;;29.60;6.35;;;0.90;99.90;;;;;;5082156;27;20042;-83
2021/12/06 06:59:01;;;;;;;29.65;6.63;;;0.90;99.90;;;;;;5116869;27;20019;-84
2021/12/06 07:01:27;;;;;;;20.60;6.10;;;0.90;99.90;;;;;;5080759;28;20032;-83
2021/12/06 07:03:54;;;;;;;44.95;6.28;;;0.90;99.90;;;;;;5059425;28;20097;-82
2021/12/06 07:06:25;;;;;;;27.50;6.70;;;1.00;99.90;;;;;;5099831;28;20153;-82
2021/12/06 07:08:54;;;;;;;20.95;5.10;;;1.00;99.90;;;;;;5115276;27;20030;-84
2021/12/06 07:11:20;;;;;;;18.13;6.53;;;1.00;99.90;;;;;;5073091;27;20028;-82
2021/12/06 07:13:47;;;;;;;22.50;6.88;;;1.00;99.90;;;;;;5116707;27;20097;-82
2021/12/06 07:16:15;;;;;;;46.83;7.35;;;1.00;99.90;;;;;;5074493;28;20032;-84
2021/12/06 07:18:41;;;;;;;30.60;7.32;;;1.00;99.90;;;;;;5085599;27;20633;-84
2021/12/06 07:21:07;;;;;;;29.25;6.18;;;1.00;99.90;;;;;;5102085;27;20781;-84
2021/12/06 07:23:38;;;;;;;26.48;6.80;;;1.00;99.90;;;;;;5089681;27;20075;-82
2021/12/06 07:26:06;;;;;;;26.50;6.90;;;1.00;99.90;;;;;;5101217;27;20062;-82
2021/12/06 07:28:32;;;;;;;25.73;6.85;;;1.00;99.90;;;;;;5115328;28;20506;-84
2021/12/06 07:30:58;;;;;;;21.15;5.90;;;1.10;99.90;;;;;;5117060;28;20042;-84
2021/12/06 07:33:25;;;;;;;25.60;6.53;;;1.00;99.90;;;;;;5080734;27;20031;-84
2021/12/06 07:35:54;;;;;;;30.85;7.28;;;1.00;99.90;;;;;;5083724;28;20032;-83
2021/12/06 07:38:20;;;;;;;34.80;5.57;;;1.00;99.90;;;;;;5085288;28;20034;-84
2021/12/06 07:40:49;;;;;;;23.33;6.38;;;1.10;99.90;;;;;;5101246;28;20023;-83
2021/12/06 07:43:15;;;;;;;33.77;6.93;;;1.10;99.90;;;;;;5075348;27;20075;-83
2021/12/06 07:45:41;;;;;;;20.48;5.75;;;1.10;99.90;;;;;;5086001;28;20119;-83
2021/12/06 07:48:07;;;;;;;21.05;6.05;;;1.10;99.90;;;;;;5080287;28;20032;-84
2021/12/06 07:50:33;;;;;;;25.15;6.00;;;1.20;99.90;;;;;;5084856;28;20032;-83
2021/12/06 07:52:59;;;;;;;24.15;7.25;;;1.30;99.90;;;;;;5079424;28;20106;-84
2021/12/06 07:55:30;;;;;;;19.40;7.28;;;1.20;99.90;;;;;;5079524;28;20530;-84
2021/12/06 07:57:56;;;;;;;49.65;6.32;;;1.30;99.90;;;;;;5064356;28;20509;-84
2021/12/06 08:00:23;;;;;;;46.08;7.07;;;1.30;99.90;;;;;;5087613;27;20024;-83
2021/12/06 08:02:49;;;;;;;51.97;7.32;;;1.30;99.90;;;;;;5095058;28;20031;-84
2021/12/06 08:05:30;;;;;;;87.60;7.35;;;1.40;99.90;;;;;;5095193;28;20039;-84
2021/12/06 08:08:22;;;;;;;43.65;6.53;;;1.30;99.90;;;;;;5080042;28;20073;-83
2021/12/06 08:10:53;;;;;;;95.90;6.13;;;1.40;99.90;;;;;;5097204;27;20444;-83
2021/12/06 08:13:26;;;;;;;85.22;7.10;;;1.30;99.90;;;;;;5115442;27;20033;-84
2021/12/06 08:15:54;;;;;;;25.77;6.50;;;1.40;99.90;;;;;;5107999;28;20024;-84
2021/12/06 08:18:20;;;;;;;43.38;6.53;;;1.40;99.90;;;;;;5067278;28;20118;-84
2021/12/06 08:20:46;;;;;;;27.15;6.82;;;1.40;99.90;;;;;;5087441;27;20027;-84
2021/12/06 08:23:12;;;;;;;33.78;6.18;;;1.40;99.90;;;;;;5113658;27;20027;-84
2021/12/06 08:25:39;;;;;;;81.10;7.25;;;1.40;99.90;;;;;;5117738;27;20027;-84
2021/12/06 08:28:05;;;;;;;64.25;8.25;;;1.40;99.90;;;;;;5101544;27;20027;-82
2021/12/06 08:30:31;;;;;;;35.92;6.15;;;1.40;99.90;;;;;;5111177;28;20032;-83
2021/12/06 08:32:59;;;;;;;33.22;7.97;;;1.50;99.90;;;;;;5092831;27;20436;-83
2021/12/06 08:35:26;;;;;;;41.25;8.93;;;1.50;99.90;;;;;;5117607;27;20072;-83
2021/12/06 08:37:54;;;;;;;31.25;8.80;;;1.60;99.90;;;;;;5101581;28;20020;-84
2021/12/06 08:40:20;;;;;;;35.15;10.15;;;1.60;99.90;;;;;;5060922;28;20027;-83
2021/12/06 08:42:47;;;;;;;71.75;12.43;;;1.70;99.90;;;;;;5076333;28;20367;-84
2021/12/06 08:45:14;;;;;;;31.48;10.52;;;1.70;99.90;;;;;;5057819;28;20020;-83
2021/12/06 08:47:42;;;;;;;35.80;13.15;;;1.80;99.90;;;;;;5057998;28;20077;-82
2021/12/06 08:50:12;;;;;;;87.38;17.70;;;1.90;99.90;;;;;;5075305;28;20025;-82
2021/12/06 08:52:38;;;;;;;36.20;11.90;;;2.00;99.90;;;;;;5063054;28;20034;-82
2021/12/06 08:55:06;;;;;;;40.05;9.30;;;2.00;99.90;;;;;;5097509;28;20028;-82
2021/12/06 08:57:32;;;;;;;87.32;10.07;;;2.10;99.90;;;;;;5078441;28;20028;-82
2021/12/06 08:59:58;;;;;;;138.32;10.10;;;2.20;99.90;;;;;;5077626;28;20039;-83
2021/12/06 09:02:24;;;;;;;21.75;8.43;;;2.30;99.90;;;;;;5058515;28;20020;-82
2021/12/06 09:04:49;;;;;;;24.70;8.57;;;2.40;99.90;;;;;;5061629;28;20036;-84
2021/12/06 09:07:15;;;;;;;28.33;8.98;;;2.50;99.90;;;;;;5083227;27;20076;-83
2021/12/06 09:09:46;;;;;;;22.50;8.48;;;2.50;99.90;;;;;;5100641;28;20037;-84
2021/12/06 09:12:27;;;;;;;31.10;8.95;;;2.60;99.90;;;;;;5084083;27;20039;-84
2021/12/06 09:15:00;;;;;;;42.53;10.23;;;2.70;99.90;;;;;;5101512;27;20043;-83
2021/12/06 09:17:27;;;;;;;26.85;9.95;;;2.70;99.90;;;;;;5101179;27;20439;-83
2021/12/06 09:19:52;;;;;;;32.67;11.93;;;2.70;99.90;;;;;;5118515;27;20023;-83
2021/12/06 09:22:19;;;;;;;30.38;13.52;;;2.70;99.90;;;;;;5108308;27;20030;-84
2021/12/06 09:24:45;;;;;;;29.35;11.93;;;2.60;99.90;;;;;;5118880;27;20023;-84
2021/12/06 09:27:12;;;;;;;35.03;12.40;;;2.60;99.90;;;;;;5119210;27;20121;-84
2021/12/06 09:29:38;;;;;;;37.55;14.27;;;2.60;99.90;;;;;;5117592;27;20039;-84
2021/12/06 09:32:06;;;;;;;22.58;9.30;;;2.60;99.90;;;;;;5100635;27;20573;-83
2021/12/06 09:34:32;;;;;;;29.20;11.57;;;2.70;99.90;;;;;;5115712;27;20062;-84
2021/12/06 09:36:59;;;;;;;18.23;8.23;;;2.70;99.90;;;;;;5105107;28;20023;-84
2021/12/06 09:39:25;;;;;;;17.85;7.65;;;2.80;99.90;;;;;;5094958;28;20020;-84
2021/12/06 09:41:52;;;;;;;15.35;6.97;;;2.80;99.90;;;;;;5079252;28;20027;-84
2021/12/06 09:44:17;;;;;;;12.50;5.65;;;2.90;99.90;;;;;;5095384;28;20051;-84
2021/12/06 09:46:44;;;;;;;13.30;5.68;;;2.90;99.90;;;;;;5059889;28;20082;-83
2021/12/06 09:49:13;;;;;;;11.13;5.32;;;3.00;99.90;;;;;;5058804;28;20552;-83
2021/12/06 09:51:43;;;;;;;13.68;5.35;;;3.10;99.90;;;;;;5065246;28;20474;-84
2021/12/06 09:54:17;;;;;;;10.70;5.85;;;3.20;99.90;;;;;;5078800;28;20391;-83
2021/12/06 09:56:52;;;;;;;11.38;5.05;;;3.30;99.90;;;;;;5080092;28;20027;-83
2021/12/06 09:59:24;;;;;;;12.70;5.40;;;3.30;99.90;;;;;;5117171;28;20037;-83
2021/12/06 10:02:02;;;;;;;15.77;6.15;;;3.30;99.90;;;;;;5118808;28;20033;-83
2021/12/06 10:04:30;;;;;;;15.82;6.78;;;3.30;99.90;;;;;;5102338;28;20062;-83
2021/12/06 10:06:56;;;;;;;14.55;6.05;;;3.40;99.90;;;;;;5099481;28;20032;-83
2021/12/06 10:09:23;;;;;;;18.75;6.22;;;3.40;99.90;;;;;;5102317;28;20034;-83
2021/12/06 10:11:50;;;;;;;14.73;5.60;;;3.40;99.90;;;;;;5101408;28;20050;-83
2021/12/06 10:14:17;;;;;;;17.67;6.65;;;3.40;99.90;;;;;;5118378;28;20426;-83
2021/12/06 10:16:43;;;;;;;16.40;6.43;;;3.40;99.90;;;;;;5099478;28;20514;-82
2021/12/06 10:19:10;;;;;;;13.88;5.93;;;3.40;99.90;;;;;;5097496;28;20402;-83
2021/12/06 10:21:37;;;;;;;13.00;6.03;;;3.40;99.90;;;;;;5081337;28;20486;-83
2021/12/06 10:24:11;;;;;;;13.00;5.93;;;3.40;99.90;;;;;;5082061;28;20421;-83
2021/12/06 10:26:39;;;;;;;17.92;6.20;;;3.30;99.90;;;;;;5099707;28;20033;-83
2021/12/06 10:29:12;;;;;;;12.07;5.65;;;3.30;99.90;;;;;;5089583;28;20542;-83
2021/12/06 10:31:43;;;;;;;12.27;6.03;;;3.40;99.90;;;;;;5117250;28;20436;-83
2021/12/06 10:34:13;;;;;;;;;;;3.40;99.90;;;;;;5096871;28;20389;-83
2021/12/06 10:36:39;;;;;;;13.13;5.50;;;3.50;99.90;;;;;;5102341;28;19976;-83
2021/12/06 10:39:08;;;;;;;10.10;4.75;;;3.50;99.90;;;;;;5078388;28;20039;-83
2021/12/06 10:41:35;;;;;;;10.27;5.80;;;3.50;99.90;;;;;;5056932;28;20081;-85
2021/12/06 10:44:04;;;;;;;17.30;6.10;;;3.60;99.90;;;;;;5064327;28;20028;-83
2021/12/06 10:46:32;;;;;;;14.68;6.10;;;3.60;99.90;;;;;;5112368;28;20035;-82
2021/12/06 10:49:03;;;;;;;13.77;5.78;;;3.60;99.90;;;;;;5097048;28;20720;-83
2021/12/06 10:51:31;;;;;;;15.73;6.07;;;3.60;99.90;;;;;;5130981;28;20038;-84
2021/12/06 10:54:07;;;;;;;11.95;5.45;;;3.50;99.90;;;;;;5114162;28;20100;-83
2021/12/06 10:56:41;;;;;;;17.63;6.85;;;3.50;99.90;;;;;;5117799;27;20428;-84
2021/12/06 10:59:22;;;;;;;16.75;7.35;;;3.50;99.90;;;;;;5118327;27;20074;-83
2021/12/06 11:01:51;;;;;;;20.08;7.40;;;3.40;99.90;;;;;;5117529;27;20023;-84
2021/12/06 11:04:20;;;;;;;17.63;6.90;;;3.40;99.90;;;;;;5117611;27;20034;-84
2021/12/06 11:06:49;;;;;;;11.13;5.95;;;3.30;99.90;;;;;;5117696;27;20027;-84
2021/12/06 11:09:26;;;;;;;15.95;7.20;;;3.30;99.90;;;;;;5117953;27;20122;-84
2021/12/06 11:11:59;;;;;;;16.20;7.15;;;3.20;99.90;;;;;;5117757;27;20023;-84
2021/12/06 11:14:34;;;;;;;17.23;7.47;;;3.30;99.90;;;;;;5117369;27;20454;-84
2021/12/06 11:17:10;;;;;;;16.52;7.00;;;3.30;99.90;;;;;;5123203;27;20385;-84
2021/12/06 11:19:37;;;;;;;13.82;6.75;;;3.30;99.90;;;;;;5090102;27;20020;-84
2021/12/06 11:22:09;;;;;;;16.10;6.85;;;3.30;99.90;;;;;;5123651;27;20035;-83
2021/12/06 11:24:39;;;;;;;16.25;6.75;;;3.20;99.90;;;;;;5106157;27;20027;-84
2021/12/06 11:27:12;;;;;;;18.88;7.20;;;3.30;99.90;;;;;;5123207;27;20043;-84
2021/12/06 11:29:51;;;;;;;19.13;7.43;;;3.30;99.90;;;;;;5106776;27;20054;-83
2021/12/06 11:32:32;;;;;;;16.20;7.13;;;3.30;99.90;;;;;;5123556;27;20390;-84
2021/12/06 11:34:57;;;;;;;;;;;3.30;99.90;;;;;;5124908;27;20027;-83
2021/12/06 11:37:32;;;;;;;16.20;6.82;;;3.40;99.90;;;;;;5128449;27;19999;-83
2021/12/06 11:40:12;;;;;;;18.08;7.15;;;3.40;99.90;;;;;;5119353;27;20015;-83
2021/12/06 11:43:00;;;;;;;19.60;7.47;;;3.40;99.90;;;;;;5117141;27;20020;-82
2021/12/06 11:45:52;;;;;;;23.50;8.27;;;3.40;99.90;;;;;;5061345;28;20036;-81
2021/12/06 11:48:24;;;;;;;22.25;8.88;;;3.40;99.90;;;;;;5078111;28;20016;-80
2021/12/06 11:50:51;;;;;;;24.15;9.13;;;3.40;99.90;;;;;;5061605;28;20028;-82
2021/12/06 11:53:21;;;;;;;22.08;8.98;;;3.30;99.90;;;;;;5116920;27;20032;-82
2021/12/06 11:55:52;;;;;;;31.30;11.70;;;3.30;99.90;;;;;;5119233;27;20478;-83
2021/12/06 11:58:27;;;;;;;23.90;10.05;;;3.30;99.90;;;;;;5103569;27;20102;-83
2021/12/06 12:01:25;;;;;;;27.02;10.00;;;3.20;99.90;;;;;;5102483;27;20061;-83
2021/12/06 12:03:57;;;;;;;24.05;9.15;;;3.20;99.90;;;;;;5074557;28;20047;-82
2021/12/06 12:06:34;;;;;;;25.38;9.20;;;3.20;99.90;;;;;;5066735;28;20020;-82
2021/12/06 12:09:29;;;;;;;20.23;9.45;;;3.20;99.90;;;;;;5092121;28;20019;-83
2021/12/06 12:12:13;;;;;;;17.55;8.07;;;3.30;99.90;;;;;;5102683;27;20033;-84
2021/12/06 12:14:42;;;;;;;17.33;7.45;;;3.30;99.90;;;;;;5126071;27;20019;-83
2021/12/06 12:17:13;;;;;;;13.70;6.68;;;3.40;99.90;;;;;;5113787;27;20019;-83
2021/12/06 12:19:39;;;;;;;;;;;3.40;99.90;;;;;;5107637;27;20043;-83
2021/12/06 12:22:06;;;;;;;11.07;5.05;;;3.50;99.90;;;;;;5110613;27;19911;-82
2021/12/06 12:24:33;;;;;;;12.90;6.22;;;3.50;99.90;;;;;;5090027;27;20027;-82
2021/12/06 12:27:09;;;;;;;11.20;5.72;;;3.50;99.90;;;;;;5103139;27;20050;-83
2021/12/06 12:29:35;;;;;;;14.85;6.53;;;3.60;99.90;;;;;;5120053;27;20039;-82
2021/12/06 12:32:05;;;;;;;10.88;5.93;;;3.60;99.90;;;;;;5099041;27;20019;-81
2021/12/06 12:34:37;;;;;;;10.30;5.68;;;3.60;99.90;;;;;;5098689;27;20023;-81
2021/12/06 12:37:05;;;;;;;11.57;6.00;;;3.60;99.90;;;;;;5096603;27;20019;-82
2021/12/06 12:39:31;;;;;;;8.77;4.15;;;3.60;99.90;;;;;;5095262;28;20035;-82
2021/12/06 12:42:00;;;;;;;10.82;5.32;;;3.60;99.90;;;;;;5078727;28;20023;-81
2021/12/06 12:44:41;;;;;;;8.85;4.97;;;3.60;99.90;;;;;;5078673;28;20028;-83
2021/12/06 12:47:20;;;;;;;11.07;5.15;;;3.60;99.90;;;;;;5095556;28;20427;-82
2021/12/06 12:49:52;;;;;;;10.18;4.78;;;3.70;99.90;;;;;;5115118;27;20027;-83
2021/12/06 12:52:41;;;;;;;8.48;4.32;;;3.70;99.90;;;;;;5098820;27;20031;-84
2021/12/06 12:55:24;;;;;;;11.35;5.20;;;3.80;99.90;;;;;;5098474;27;20403;-82
2021/12/06 12:57:50;;;;;;;7.38;4.07;;;3.80;99.90;;;;;;5094376;28;20439;-82
2021/12/06 13:00:22;;;;;;;6.55;4.05;;;3.80;99.90;;;;;;5078195;28;20043;-82
2021/12/06 13:02:48;;;;;;;6.97;3.85;;;3.80;99.90;;;;;;5073477;28;20054;-81
2021/12/06 13:05:21;;;;;;;10.13;4.05;;;3.80;99.90;;;;;;5094955;28;20026;-83
2021/12/06 13:08:03;;;;;;;7.47;3.95;;;3.70;99.90;;;;;;5081106;27;20039;-84
2021/12/06 13:10:45;;;;;;;10.25;4.15;;;3.80;99.90;;;;;;5101486;27;20153;-82
2021/12/06 13:13:30;;;;;;;8.68;3.63;;;3.70;99.90;;;;;;5098633;27;20035;-83
2021/12/06 13:16:22;;;;;;;9.40;3.67;;;3.60;99.90;;;;;;5110056;27;20034;-83
2021/12/06 13:19:11;;;;;;;8.20;3.95;;;3.50;99.90;;;;;;5112801;27;20052;-83
2021/12/06 13:21:54;;;;;;;7.57;3.55;;;3.40;99.90;;;;;;5127671;27;20026;-83